Terminal Aerodrome Forecast
Issued by NWS Bismarck, ND

Home | Current Version | Previous Version | Text Only | Print | Product List | Glossary On
Versions: 1 2 3 4 5 6 7 8 9 10 11 12 13 14 15 16 17 18 19 20 21 22 23
358
FTUS43 KBIS 122335
TAFISN
TAF
KISN 122335Z 1300/1324 28016G23KT P6SM SCT200 WS020/32045KT
     FM130700 30020G30KT P6SM FEW200
     FM131400 32023G33KT P6SM BKN030
     FM132100 32017G25KT P6SM OVC035=

USA.gov is the U.S. government's official web portal to all federal, state and local government web resources and services.